Time;durP1;ratioP1;P1;durP2;ratioP2;P2;SDS_P1;SDS_P2;PMS_P1;PMS_P2;Temp;Humidity;BMP_temperature;BMP_pressure;BME280_temperature;BME280_humidity;BME280_pressure;Samples;Min_cycle;Max_cycle;Signal;HPM_P1;HPM_P2
2023/07/01 00:02:00;;;;;;;;;;;23.20;48.40;;;;;;5017152;28;19928;-57
2023/07/01 00:04:27;;;;;;;;;;;23.30;48.40;;;;;;5050576;28;20337;-56
2023/07/01 00:06:54;;;;;;;;;;;23.20;48.30;;;;;;5051499;28;19920;-57
2023/07/01 00:09:21;;;;;;;;;;;23.20;48.30;;;;;;5046141;28;19921;-58
2023/07/01 00:11:49;;;;;;;;;;;23.30;48.40;;;;;;5053599;28;19920;-58
2023/07/01 00:14:15;;;;;;;;;;;23.20;48.30;;;;;;5043616;28;19933;-56
2023/07/01 00:16:44;;;;;;;;;;;23.20;48.30;;;;;;5041721;28;20274;-56
2023/07/01 00:19:11;;;;;;;;;;;23.20;48.30;;;;;;5040760;28;19921;-57
2023/07/01 00:21:37;;;;;;;;;;;23.30;48.40;;;;;;5050565;28;19927;-57
2023/07/01 00:24:04;;;;;;;;;;;23.20;48.30;;;;;;5051519;28;19920;-58
2023/07/01 00:26:31;;;;;;;;;;;23.20;48.30;;;;;;5034926;28;19921;-57
2023/07/01 00:28:58;;;;;;;;;;;23.20;48.30;;;;;;5045834;28;19920;-59
2023/07/01 00:31:25;;;;;;;;;;;23.20;48.30;;;;;;5036189;28;19921;-57
2023/07/01 00:33:54;;;;;;;;;;;23.30;48.40;;;;;;5046553;28;19994;-57
2023/07/01 00:36:20;;;;;;;;;;;23.30;48.40;;;;;;5062580;28;19927;-58
2023/07/01 00:38:47;;;;;;;;;;;23.20;48.30;;;;;;5040518;28;19925;-55
2023/07/01 00:41:17;;;;;;;;;;;23.20;48.30;;;;;;5044717;28;19921;-58
2023/07/01 00:43:44;;;;;;;;;;;23.30;48.40;;;;;;5032010;28;19925;-58
2023/07/01 00:46:10;;;;;;;;;;;23.30;48.40;;;;;;5039191;28;19924;-58
2023/07/01 00:48:37;;;;;;;;;;;23.30;48.40;;;;;;5038000;28;20355;-58
2023/07/01 00:51:05;;;;;;;;;;;23.20;48.30;;;;;;5052826;28;19931;-58
2023/07/01 00:53:32;;;;;;;;;;;23.30;48.40;;;;;;5038004;28;19921;-58
2023/07/01 00:55:59;;;;;;;;;;;23.30;48.40;;;;;;5034509;28;19921;-58
2023/07/01 00:58:26;;;;;;;;;;;23.30;48.40;;;;;;5054161;28;20325;-58
2023/07/01 01:00:56;;;;;;;;;;;23.30;48.40;;;;;;5036807;28;20367;-58
2023/07/01 01:03:26;;;;;;;;;;;23.20;48.30;;;;;;5055956;28;20015;-59
2023/07/01 01:05:56;;;;;;;;;;;23.30;48.40;;;;;;5044061;28;19939;-58
2023/07/01 01:08:25;;;;;;;;;;;23.20;48.30;;;;;;5027251;28;19928;-57
2023/07/01 01:10:52;;;;;;;;;;;23.30;48.40;;;;;;5044565;28;19920;-58
2023/07/01 01:13:19;;;;;;;;;;;23.20;48.30;;;;;;5057801;28;19921;-58
2023/07/01 01:15:45;;;;;;;;;;;23.30;48.40;;;;;;5058058;28;19928;-58
2023/07/01 01:18:12;;;;;;;;;;;23.30;48.40;;;;;;5040503;28;19924;-58
2023/07/01 01:20:39;;;;;;;;;;;23.30;48.40;;;;;;5057871;28;20019;-58
2023/07/01 01:23:08;;;;;;;;;;;23.20;48.30;;;;;;5041814;28;19920;-57
2023/07/01 01:25:35;;;;;;;;;;;23.30;48.30;;;;;;5060725;28;20382;-57
2023/07/01 01:28:04;;;;;;;;;;;23.30;48.30;;;;;;5041650;28;19971;-58
2023/07/01 01:30:31;;;;;;;;;;;23.20;48.20;;;;;;5034219;28;19933;-58
2023/07/01 01:32:58;;;;;;;;;;;23.30;48.30;;;;;;5052063;28;19929;-58
2023/07/01 01:35:25;;;;;;;;;;;23.30;48.30;;;;;;5043924;28;19983;-58
2023/07/01 01:37:54;;;;;;;;;;;23.30;48.30;;;;;;5061327;28;19927;-57
2023/07/01 01:40:22;;;;;;;;;;;23.20;48.20;;;;;;5052650;28;19921;-58
2023/07/01 01:42:49;;;;;;;;;;;23.30;48.20;;;;;;5040549;28;19924;-59
2023/07/01 01:45:19;;;;;;;;;;;23.20;48.00;;;;;;5057700;28;19924;-57
2023/07/01 01:47:45;;;;;;;;;;;23.20;48.00;;;;;;5041191;28;20302;-57
2023/07/01 01:50:12;;;;;;;;;;;23.20;47.90;;;;;;5038898;28;19920;-58
2023/07/01 01:52:39;;;;;;;;;;;23.20;47.90;;;;;;5043782;28;19927;-58
2023/07/01 01:55:06;;;;;;;;;;;23.20;47.90;;;;;;5037501;28;20023;-58
2023/07/01 01:57:33;;;;;;;;;;;23.20;47.80;;;;;;5037894;28;19921;-58
2023/07/01 02:00:00;;;;;;;;;;;23.20;47.70;;;;;;5036051;28;19921;-58
2023/07/01 02:02:28;;;;;;;;;;;23.20;47.70;;;;;;5042905;28;19920;-58
2023/07/01 02:04:54;;;;;;;;;;;23.20;47.70;;;;;;5047941;28;19920;-58
2023/07/01 02:07:21;;;;;;;;;;;23.20;47.60;;;;;;5047295;28;19920;-58
2023/07/01 02:09:48;;;;;;;;;;;23.20;47.60;;;;;;5048122;28;19924;-57
2023/07/01 02:12:15;;;;;;;;;;;23.20;47.50;;;;;;5037359;28;19921;-57
2023/07/01 02:14:42;;;;;;;;;;;23.10;47.40;;;;;;5033178;28;19974;-58
2023/07/01 02:17:08;;;;;;;;;;;23.20;47.50;;;;;;5035368;28;19929;-58
2023/07/01 02:19:36;;;;;;;;;;;23.20;47.40;;;;;;5033190;28;19932;-57
2023/07/01 02:22:03;;;;;;;;;;;23.20;47.40;;;;;;5051888;28;19925;-57
2023/07/01 02:24:30;;;;;;;;;;;23.20;47.40;;;;;;5034881;28;20066;-59
2023/07/01 02:26:57;;;;;;;;;;;23.10;47.30;;;;;;5037401;28;19920;-58
2023/07/01 02:29:23;;;;;;;;;;;23.10;47.20;;;;;;5036495;28;19920;-58
2023/07/01 02:31:50;;;;;;;;;;;23.20;47.30;;;;;;5039561;28;19920;-58
2023/07/01 02:34:17;;;;;;;;;;;23.10;47.20;;;;;;5043735;28;19928;-58
2023/07/01 02:36:46;;;;;;;;;;;23.10;47.10;;;;;;5032868;28;19970;-58
2023/07/01 02:39:12;;;;;;;;;;;23.10;47.10;;;;;;5050677;28;19925;-58
2023/07/01 02:41:39;;;;;;;;;;;23.10;47.10;;;;;;5039556;28;19928;-58
2023/07/01 02:44:06;;;;;;;;;;;23.10;47.00;;;;;;5045921;28;19921;-58
2023/07/01 02:46:32;;;;;;;;;;;23.10;47.20;;;;;;5052155;28;19921;-58
2023/07/01 02:48:59;;;;;;;;;;;23.10;47.00;;;;;;5042767;28;19924;-58
2023/07/01 02:51:26;;;;;;;;;;;23.10;46.90;;;;;;5055645;28;19928;-58
2023/07/01 02:53:54;;;;;;;;;;;23.10;46.90;;;;;;5031838;28;19921;-58
2023/07/01 02:56:21;;;;;;;;;;;23.10;47.50;;;;;;5016713;28;19967;-58
2023/07/01 02:58:48;;;;;;;;;;;23.10;46.80;;;;;;5016141;28;19921;-58
2023/07/01 03:01:14;;;;;;;;;;;23.10;46.80;;;;;;5030173;28;19970;-58
2023/07/01 03:03:41;;;;;;;;;;;23.10;46.80;;;;;;5036155;28;19921;-56
2023/07/01 03:06:09;;;;;;;;;;;23.10;46.70;;;;;;5036033;28;19974;-56
2023/07/01 03:08:36;;;;;;;;;;;23.10;46.70;;;;;;5033110;28;19920;-57
2023/07/01 03:11:04;;;;;;;;;;;23.10;46.70;;;;;;5051152;28;19982;-58
2023/07/01 03:13:31;;;;;;;;;;;23.10;46.70;;;;;;5030893;28;20367;-59
2023/07/01 03:15:58;;;;;;;;;;;23.10;46.60;;;;;;5051029;28;19928;-59
2023/07/01 03:18:25;;;;;;;;;;;23.10;46.60;;;;;;5073776;28;19928;-59
2023/07/01 03:20:51;;;;;;;;;;;23.10;46.50;;;;;;5046442;28;19925;-58
2023/07/01 03:23:18;;;;;;;;;;;23.10;46.40;;;;;;5047796;28;19936;-58
2023/07/01 03:25:45;;;;;;;;;;;23.10;46.40;;;;;;5041198;28;19921;-58
2023/07/01 03:28:13;;;;;;;;;;;23.10;46.30;;;;;;5041413;28;19931;-58
2023/07/01 03:30:40;;;;;;;;;;;23.10;46.30;;;;;;5053771;28;20406;-58
2023/07/01 03:33:08;;;;;;;;;;;23.10;46.20;;;;;;5032533;28;19932;-58
2023/07/01 03:35:34;;;;;;;;;;;23.10;46.10;;;;;;5036874;28;19951;-59
2023/07/01 03:38:01;;;;;;;;;;;23.10;46.10;;;;;;5038135;28;19998;-59
2023/07/01 03:40:28;;;;;;;;;;;23.10;46.10;;;;;;5040279;28;19975;-58
2023/07/01 03:42:55;;;;;;;;;;;23.10;46.10;;;;;;5040704;28;19970;-59
2023/07/01 03:45:23;;;;;;;;;;;23.10;46.10;;;;;;5042300;28;19920;-58
2023/07/01 03:47:50;;;;;;;;;;;23.10;46.10;;;;;;5043046;28;19925;-58
2023/07/01 03:50:17;;;;;;;;;;;23.10;46.20;;;;;;5061613;28;19970;-58
2023/07/01 03:52:44;;;;;;;;;;;23.10;46.10;;;;;;5054635;28;19921;-58
2023/07/01 03:55:12;;;;;;;;;;;23.10;46.00;;;;;;5039358;28;19929;-58
2023/07/01 03:57:38;;;;;;;;;;;23.00;45.90;;;;;;5038249;28;19940;-58
2023/07/01 04:00:08;;;;;;;;;;;23.10;45.90;;;;;;5045379;28;19925;-58
2023/07/01 04:02:37;;;;;;;;;;;23.00;45.80;;;;;;5045399;28;20317;-58
2023/07/01 04:05:09;;;;;;;;;;;23.00;45.80;;;;;;5048382;28;19924;-58
2023/07/01 04:07:36;;;;;;;;;;;23.00;45.80;;;;;;5044640;28;19928;-58
2023/07/01 04:10:05;;;;;;;;;;;23.00;45.80;;;;;;5042679;28;19924;-58
2023/07/01 04:12:32;;;;;;;;;;;23.00;45.80;;;;;;5041186;28;20024;-58
2023/07/01 04:14:59;;;;;;;;;;;23.00;45.80;;;;;;5043367;28;19932;-58
2023/07/01 04:17:26;;;;;;;;;;;23.00;45.70;;;;;;5043741;28;19974;-58
2023/07/01 04:19:54;;;;;;;;;;;23.00;45.80;;;;;;5064465;28;20358;-58
2023/07/01 04:22:21;;;;;;;;;;;23.00;45.70;;;;;;5044272;28;19932;-58
2023/07/01 04:24:47;;;;;;;;;;;23.00;45.70;;;;;;5042526;28;19924;-58
2023/07/01 04:27:14;;;;;;;;;;;23.00;45.80;;;;;;5044832;28;19920;-58
2023/07/01 04:29:41;;;;;;;;;;;23.00;45.80;;;;;;5068180;28;19928;-58
2023/07/01 04:32:08;;;;;;;;;;;23.00;45.80;;;;;;5038222;28;19920;-58
2023/07/01 04:34:35;;;;;;;;;;;23.00;45.80;;;;;;5052303;28;19932;-58
2023/07/01 04:37:03;;;;;;;;;;;23.00;45.80;;;;;;5052034;28;19920;-58
2023/07/01 04:39:30;;;;;;;;;;;23.00;45.70;;;;;;5045734;28;19928;-58
2023/07/01 04:41:56;;;;;;;;;;;23.00;45.80;;;;;;5041533;28;19974;-58
2023/07/01 04:44:23;;;;;;;;;;;23.00;45.80;;;;;;5032861;28;19966;-58
2023/07/01 04:46:50;;;;;;;;;;;23.00;45.80;;;;;;5044771;28;19925;-58
2023/07/01 04:49:17;;;;;;;;;;;23.00;45.70;;;;;;5061216;28;19986;-58
2023/07/01 04:51:44;;;;;;;;;;;23.00;45.70;;;;;;5048303;28;19924;-58
2023/07/01 04:54:12;;;;;;;;;;;23.00;45.70;;;;;;5064350;28;19933;-58
2023/07/01 04:56:39;;;;;;;;;;;23.00;45.70;;;;;;5041974;28;19970;-58
2023/07/01 04:59:05;;;;;;;;;;;23.00;45.70;;;;;;5050928;28;19974;-58
2023/07/01 05:01:32;;;;;;;;;;;23.00;45.80;;;;;;5051486;28;19921;-58
2023/07/01 05:03:59;;;;;;;;;;;23.00;45.80;;;;;;5058694;28;19966;-58
2023/07/01 05:06:26;;;;;;;;;;;23.00;45.70;;;;;;5058050;28;19969;-58
2023/07/01 05:08:53;;;;;;;;;;;23.00;45.80;;;;;;5058506;28;19924;-58
2023/07/01 05:11:21;;;;;;;;;;;23.00;45.70;;;;;;5049362;28;20282;-58
2023/07/01 05:13:48;;;;;;;;;;;23.00;45.70;;;;;;5050840;28;19986;-58
2023/07/01 05:16:14;;;;;;;;;;;23.00;45.70;;;;;;5050087;28;19924;-58
2023/07/01 05:18:41;;;;;;;;;;;23.00;45.80;;;;;;5061420;28;19925;-57
2023/07/01 05:21:08;;;;;;;;;;;23.00;45.80;;;;;;5068347;28;19936;-57
2023/07/01 05:23:34;;;;;;;;;;;23.00;45.80;;;;;;5062707;28;19935;-57
2023/07/01 05:26:01;;;;;;;;;;;23.00;45.80;;;;;;5045670;28;19925;-57
2023/07/01 05:28:29;;;;;;;;;;;23.00;45.80;;;;;;5045691;28;19928;-57
2023/07/01 05:30:56;;;;;;;;;;;23.00;45.80;;;;;;5041061;28;19920;-57
2023/07/01 05:33:23;;;;;;;;;;;23.00;45.80;;;;;;5045658;28;19920;-58
2023/07/01 05:35:50;;;;;;;;;;;23.00;45.90;;;;;;5038586;28;19920;-58
2023/07/01 05:38:16;;;;;;;;;;;23.00;45.90;;;;;;5041443;28;19925;-58
2023/07/01 05:40:43;;;;;;;;;;;23.00;46.00;;;;;;5067115;28;19932;-58
2023/07/01 05:43:10;;;;;;;;;;;23.00;46.00;;;;;;5057072;28;19920;-58
2023/07/01 05:45:38;;;;;;;;;;;23.00;46.10;;;;;;5043038;28;19944;-58
2023/07/01 05:48:05;;;;;;;;;;;23.00;46.10;;;;;;5035593;28;19928;-58
2023/07/01 05:50:32;;;;;;;;;;;23.00;46.20;;;;;;5033508;28;19924;-58
2023/07/01 05:52:59;;;;;;;;;;;23.00;46.20;;;;;;5051611;28;19924;-57
2023/07/01 05:55:25;;;;;;;;;;;23.00;46.20;;;;;;5034092;28;19921;-57
2023/07/01 05:57:52;;;;;;;;;;;23.00;46.30;;;;;;5034219;28;19936;-57
2023/07/01 06:00:19;;;;;;;;;;;23.00;46.30;;;;;;5035971;28;19972;-58
2023/07/01 06:02:47;;;;;;;;;;;23.00;46.40;;;;;;5032839;28;19925;-58
2023/07/01 06:05:14;;;;;;;;;;;23.00;46.30;;;;;;5037584;28;19967;-57
2023/07/01 06:07:41;;;;;;;;;;;23.00;46.30;;;;;;5036005;28;19925;-58
2023/07/01 06:10:08;;;;;;;;;;;23.00;46.30;;;;;;5033401;28;19928;-58
2023/07/01 06:12:35;;;;;;;;;;;23.00;46.40;;;;;;5046599;28;20314;-58
2023/07/01 06:15:02;;;;;;;;;;;23.00;46.40;;;;;;5043464;28;19921;-58
2023/07/01 06:17:28;;;;;;;;;;;23.00;46.50;;;;;;5037795;28;19974;-58
2023/07/01 06:19:56;;;;;;;;;;;23.00;46.50;;;;;;5043189;28;19931;-58
2023/07/01 06:22:23;;;;;;;;;;;23.00;46.60;;;;;;5049647;28;19927;-58
2023/07/01 06:24:50;;;;;;;;;;;23.00;47.20;;;;;;5074346;28;19920;-58
2023/07/01 06:27:17;;;;;;;;;;;23.10;46.70;;;;;;5049793;28;19920;-58
2023/07/01 06:29:44;;;;;;;;;;;23.10;46.80;;;;;;5036749;28;19920;-58
2023/07/01 06:32:10;;;;;;;;;;;23.00;46.80;;;;;;5036637;28;19936;-57
2023/07/01 06:34:37;;;;;;;;;;;23.10;46.90;;;;;;5035724;28;20171;-58
2023/07/01 06:37:07;;;;;;;;;;;23.10;46.90;;;;;;5041807;28;19921;-58
2023/07/01 06:39:34;;;;;;;;;;;23.00;46.90;;;;;;5040914;28;20023;-58
2023/07/01 06:42:01;;;;;;;;;;;23.10;47.00;;;;;;5042167;28;19982;-57
2023/07/01 06:44:28;;;;;;;;;;;23.10;47.00;;;;;;5030205;28;19944;-58
2023/07/01 06:46:54;;;;;;;;;;;23.10;47.10;;;;;;5054268;28;19925;-58
2023/07/01 06:49:21;;;;;;;;;;;23.00;47.00;;;;;;5037106;28;19932;-58
2023/07/01 06:51:48;;;;;;;;;;;23.10;47.20;;;;;;5028437;28;19983;-58
2023/07/01 06:54:16;;;;;;;;;;;23.00;47.10;;;;;;5033528;28;19943;-58
2023/07/01 06:56:43;;;;;;;;;;;23.10;47.20;;;;;;5032244;28;19991;-58
2023/07/01 06:59:10;;;;;;;;;;;23.00;47.10;;;;;;5052149;28;19926;-58
2023/07/01 07:01:36;;;;;;;;;;;23.10;47.20;;;;;;5056521;28;19921;-57
2023/07/01 07:04:03;;;;;;;;;;;23.10;47.20;;;;;;5051126;28;20224;-57
2023/07/01 07:06:30;;;;;;;;;;;23.10;47.30;;;;;;5043142;28;20000;-57
2023/07/01 07:08:57;;;;;;;;;;;23.10;47.30;;;;;;5034132;28;19921;-57
2023/07/01 07:11:25;;;;;;;;;;;23.10;47.30;;;;;;5041064;28;19932;-57
2023/07/01 07:13:52;;;;;;;;;;;23.10;47.40;;;;;;5040200;28;19982;-57
2023/07/01 07:16:19;;;;;;;;;;;23.10;47.40;;;;;;5056607;28;19921;-57
2023/07/01 07:18:45;;;;;;;;;;;23.10;47.40;;;;;;5037530;28;19921;-57
2023/07/01 07:21:12;;;;;;;;;;;23.10;47.40;;;;;;5056766;28;19974;-58
2023/07/01 07:23:39;;;;;;;;;;;23.10;47.40;;;;;;5041779;28;19927;-57
2023/07/01 07:26:07;;;;;;;;;;;23.10;47.40;;;;;;5038637;28;19925;-57
2023/07/01 07:28:38;;;;;;;;;;;23.10;47.50;;;;;;5038357;28;19924;-57
2023/07/01 07:31:06;;;;;;;;;;;23.10;47.50;;;;;;5038316;28;19935;-57
2023/07/01 07:33:33;;;;;;;;;;;23.10;47.60;;;;;;5038579;28;19933;-57
2023/07/01 07:36:00;;;;;;;;;;;23.10;47.60;;;;;;5022569;28;19928;-57
2023/07/01 07:38:27;;;;;;;;;;;23.10;47.70;;;;;;5032739;28;19921;-58
2023/07/01 07:40:53;;;;;;;;;;;23.10;47.70;;;;;;5043953;28;19931;-58
2023/07/01 07:43:20;;;;;;;;;;;23.10;47.80;;;;;;5038928;28;19974;-58
2023/07/01 07:45:49;;;;;;;;;;;23.10;47.90;;;;;;5035840;28;19924;-58
2023/07/01 07:48:15;;;;;;;;;;;23.10;48.00;;;;;;5041185;28;20314;-58
2023/07/01 07:50:42;;;;;;;;;;;23.10;48.00;;;;;;5052520;28;19947;-58
2023/07/01 07:53:09;;;;;;;;;;;23.10;48.10;;;;;;5054324;28;19927;-57
2023/07/01 07:55:36;;;;;;;;;;;23.10;48.20;;;;;;5032872;28;19940;-58
2023/07/01 07:58:02;;;;;;;;;;;23.10;48.30;;;;;;5039662;28;19927;-58
2023/07/01 08:00:29;;;;;;;;;;;23.10;48.40;;;;;;5036220;28;19966;-58
2023/07/01 08:02:58;;;;;;;;;;;23.10;48.40;;;;;;5037355;28;20399;-58
2023/07/01 08:05:26;;;;;;;;;;;23.10;48.50;;;;;;5056359;28;19924;-58
2023/07/01 08:07:53;;;;;;;;;;;23.10;48.50;;;;;;5042491;28;19921;-58
2023/07/01 08:10:19;;;;;;;;;;;23.10;48.60;;;;;;5030792;28;20389;-58
2023/07/01 08:12:46;;;;;;;;;;;23.10;48.60;;;;;;5037612;28;20016;-58
2023/07/01 08:15:13;;;;;;;;;;;23.10;48.70;;;;;;4983251;28;1892792;-57
2023/07/01 08:17:40;;;;;;;;;;;23.10;48.70;;;;;;5036243;28;19986;-57
2023/07/01 08:20:09;;;;;;;;;;;23.10;48.80;;;;;;5037535;28;19921;-57
2023/07/01 08:22:37;;;;;;;;;;;23.10;48.90;;;;;;5046294;28;21180;-57
2023/07/01 08:25:04;;;;;;;;;;;23.10;49.00;;;;;;5027333;28;20040;-57
2023/07/01 08:27:31;;;;;;;;;;;23.20;49.10;;;;;;5039099;28;19995;-57
2023/07/01 08:29:57;;;;;;;;;;;23.20;49.30;;;;;;5048224;28;19928;-57
2023/07/01 08:32:24;;;;;;;;;;;23.20;49.40;;;;;;5030409;28;19928;-57
2023/07/01 08:34:51;;;;;;;;;;;23.20;49.50;;;;;;5032803;28;20260;-57
2023/07/01 08:37:19;;;;;;;;;;;23.10;49.50;;;;;;5051890;28;19921;-57
2023/07/01 08:39:46;;;;;;;;;;;23.20;49.70;;;;;;5027699;28;19920;-57
2023/07/01 08:42:13;;;;;;;;;;;23.10;49.70;;;;;;5037425;28;20049;-57
2023/07/01 08:44:40;;;;;;;;;;;23.20;49.80;;;;;;5036765;28;19921;-57
2023/07/01 08:47:06;;;;;;;;;;;23.20;49.80;;;;;;5034514;28;19928;-57
2023/07/01 08:49:34;;;;;;;;;;;23.20;50.00;;;;;;5044729;28;20278;-57
2023/07/01 08:52:03;;;;;;;;;;;23.20;50.00;;;;;;5062341;28;19963;-57
2023/07/01 08:54:32;;;;;;;;;;;23.20;50.00;;;;;;5033924;28;19968;-57
2023/07/01 08:56:58;;;;;;;;;;;23.20;50.10;;;;;;5030888;28;20239;-56
2023/07/01 08:59:25;;;;;;;;;;;23.20;50.10;;;;;;5031593;28;19931;-57
2023/07/01 09:01:52;;;;;;;;;;;23.20;50.10;;;;;;5033806;28;19928;-57
2023/07/01 09:04:21;;;;;;;;;;;23.20;50.20;;;;;;5041953;28;19933;-58
2023/07/01 09:06:48;;;;;;;;;;;23.20;50.20;;;;;;5032647;28;19947;-58
2023/07/01 09:09:15;;;;;;;;;;;23.20;50.20;;;;;;5028990;28;19925;-58
2023/07/01 09:11:44;;;;;;;;;;;23.20;50.30;;;;;;5031329;28;19920;-58
2023/07/01 09:14:11;;;;;;;;;;;23.20;50.30;;;;;;5058356;28;20047;-58
2023/07/01 09:16:38;;;;;;;;;;;23.20;50.40;;;;;;5034401;28;19967;-57
2023/07/01 09:19:05;;;;;;;;;;;23.20;51.10;;;;;;5030869;28;19925;-58
2023/07/01 09:21:32;;;;;;;;;;;23.20;50.50;;;;;;5034120;28;19928;-58
2023/07/01 09:23:59;;;;;;;;;;;23.20;50.60;;;;;;5023349;28;19920;-58
2023/07/01 09:26:30;;;;;;;;;;;23.20;50.60;;;;;;5037639;28;19936;-59
2023/07/01 09:28:58;;;;;;;;;;;23.20;50.70;;;;;;5048878;28;19925;-58
2023/07/01 09:31:25;;;;;;;;;;;23.20;50.80;;;;;;5044198;28;19932;-58
2023/07/01 09:33:59;;;;;;;;;;;23.20;50.80;;;;;;5059536;28;19936;-58
2023/07/01 09:36:26;;;;;;;;;;;23.20;50.80;;;;;;5041519;28;19931;-58
2023/07/01 09:38:53;;;;;;;;;;;23.20;50.90;;;;;;5060621;28;19921;-57
2023/07/01 09:41:23;;;;;;;;;;;23.20;50.90;;;;;;5041449;28;19929;-57
2023/07/01 09:43:49;;;;;;;;;;;23.20;50.90;;;;;;5060958;28;19963;-58
2023/07/01 09:46:18;;;;;;;;;;;23.20;51.00;;;;;;5035972;28;19931;-58
2023/07/01 09:48:52;;;;;;;;;;;23.20;51.00;;;;;;5038356;28;19920;-59
2023/07/01 09:51:19;;;;;;;;;;;23.20;51.10;;;;;;5037318;28;20031;-57
2023/07/01 09:53:46;;;;;;;;;;;23.20;51.10;;;;;;5045644;28;19920;-56
2023/07/01 09:56:14;;;;;;;;;;;23.20;51.20;;;;;;5056575;28;19927;-58
2023/07/01 09:58:40;;;;;;;;;;;23.20;51.10;;;;;;5046424;28;20212;-56
2023/07/01 10:01:07;;;;;;;;;;;23.20;51.20;;;;;;5044656;28;19927;-59
2023/07/01 10:03:42;;;;;;;;;;;23.20;51.80;;;;;;5058983;28;19927;-58
2023/07/01 10:06:09;;;;;;;;;;;23.20;51.30;;;;;;5032801;28;19933;-58
2023/07/01 10:08:36;;;;;;;;;;;23.20;51.30;;;;;;5031328;28;19929;-58
2023/07/01 10:11:04;;;;;;;;;;;23.20;51.30;;;;;;5027899;28;19921;-57
2023/07/01 10:13:31;;;;;;;;;;;23.20;51.30;;;;;;5027942;28;19943;-57
2023/07/01 10:15:57;;;;;;;;;;;23.20;51.30;;;;;;5036777;28;19920;-58
2023/07/01 10:18:24;;;;;;;;;;;23.20;51.30;;;;;;5040921;28;19920;-58
2023/07/01 10:20:52;;;;;;;;;;;23.20;51.30;;;;;;5034450;28;20059;-58
2023/07/01 10:23:20;;;;;;;;;;;23.20;51.30;;;;;;5058585;28;19932;-58
2023/07/01 10:25:47;;;;;;;;;;;23.30;51.50;;;;;;5053838;28;20224;-58
2023/07/01 10:28:14;;;;;;;;;;;23.20;51.30;;;;;;5028709;28;19932;-58
2023/07/01 10:30:59;;;;;;;;;;;23.20;51.30;;;;;;5030696;28;19966;-58
2023/07/01 10:33:44;;;;;;;;;;;23.20;51.40;;;;;;5044184;28;19936;-58
2023/07/01 10:36:13;;;;;;;;;;;23.20;51.40;;;;;;5029929;28;19925;-58
2023/07/01 10:38:40;;;;;;;;;;;23.30;51.50;;;;;;5035036;28;19925;-56
2023/07/01 10:41:07;;;;;;;;;;;23.30;51.60;;;;;;5032169;28;19947;-59
2023/07/01 10:43:34;;;;;;;;;;;23.20;51.50;;;;;;5027944;28;19920;-58
2023/07/01 10:46:06;;;;;;;;;;;23.30;51.60;;;;;;5052621;28;19920;-59
2023/07/01 10:48:33;;;;;;;;;;;23.20;51.60;;;;;;5047049;28;20004;-58
2023/07/01 10:51:00;;;;;;;;;;;23.20;51.60;;;;;;5033903;28;19924;-59
2023/07/01 10:53:29;;;;;;;;;;;23.20;51.80;;;;;;5047939;28;19978;-59
2023/07/01 10:56:09;;;;;;;;;;;23.20;51.80;;;;;;5036444;28;20351;-59
2023/07/01 10:58:36;;;;;;;;;;;23.30;51.90;;;;;;5046942;28;20012;-59
2023/07/01 11:01:03;;;;;;;;;;;23.30;52.00;;;;;;5030263;28;20442;-59
2023/07/01 11:03:49;;;;;;;;;;;23.30;52.00;;;;;;5032617;28;19974;-59
2023/07/01 11:06:16;;;;;;;;;;;23.30;52.10;;;;;;5031808;28;19920;-59
2023/07/01 11:08:47;;;;;;;;;;;23.30;52.10;;;;;;5039650;28;19972;-58
2023/07/01 11:11:18;;;;;;;;;;;23.30;52.10;;;;;;5034710;28;19932;-58
2023/07/01 11:13:54;;;;;;;;;;;23.30;52.20;;;;;;5016662;28;19996;-58
2023/07/01 11:16:21;;;;;;;;;;;23.30;52.20;;;;;;5032316;28;19928;-58
2023/07/01 11:18:48;;;;;;;;;;;23.30;52.30;;;;;;5035375;28;21547;-58
2023/07/01 11:21:18;;;;;;;;;;;23.20;52.20;;;;;;5032498;28;19920;-58
2023/07/01 11:23:52;;;;;;;;;;;23.30;52.30;;;;;;5030427;28;19956;-58
2023/07/01 11:26:19;;;;;;;;;;;23.30;52.40;;;;;;5040675;28;20327;-58
2023/07/01 11:28:46;;;;;;;;;;;23.30;52.50;;;;;;5048777;28;19933;-58
2023/07/01 11:31:14;;;;;;;;;;;23.30;52.50;;;;;;5039164;28;20317;-58
2023/07/01 11:33:43;;;;;;;;;;;23.30;52.60;;;;;;5036710;28;19920;-58
2023/07/01 11:36:10;;;;;;;;;;;23.20;52.50;;;;;;5034015;28;19994;-58
2023/07/01 11:38:37;;;;;;;;;;;23.20;52.70;;;;;;5048002;28;19940;-57
2023/07/01 11:41:05;;;;;;;;;;;23.20;52.70;;;;;;5036216;28;20020;-58
2023/07/01 11:43:31;;;;;;;;;;;23.30;52.90;;;;;;5039158;28;19920;-58
2023/07/01 11:45:59;;;;;;;;;;;23.30;52.90;;;;;;5046681;28;19921;-58
2023/07/01 11:48:34;;;;;;;;;;;23.20;52.90;;;;;;5047756;28;19921;-58
2023/07/01 11:51:01;;;;;;;;;;;23.30;53.00;;;;;;5025097;28;19932;-59
2023/07/01 11:53:28;;;;;;;;;;;23.30;53.00;;;;;;5029679;28;19921;-58
2023/07/01 11:55:56;;;;;;;;;;;23.30;53.10;;;;;;5035109;28;20012;-58
2023/07/01 11:58:28;;;;;;;;;;;23.30;53.10;;;;;;5034672;28;20210;-58
2023/07/01 12:00:55;;;;;;;;;;;23.30;53.20;;;;;;5047482;28;19921;-58
2023/07/01 12:03:22;;;;;;;;;;;23.30;53.20;;;;;;5031595;28;19925;-59
2023/07/01 12:05:49;;;;;;;;;;;23.20;53.20;;;;;;5038234;28;19975;-60
2023/07/01 12:08:15;;;;;;;;;;;23.30;53.30;;;;;;5057977;28;19932;-60
2023/07/01 12:10:42;;;;;;;;;;;23.30;53.40;;;;;;5051960;28;19920;-62
2023/07/01 12:13:09;;;;;;;;;;;23.30;53.50;;;;;;5034205;28;20011;-60
2023/07/01 12:15:51;;;;;;;;;;;23.30;53.50;;;;;;5040068;28;19924;-60
2023/07/01 12:18:22;;;;;;;;;;;23.30;53.50;;;;;;5053706;28;19924;-61
2023/07/01 12:20:49;;;;;;;;;;;23.30;53.50;;;;;;5054874;28;19921;-59
2023/07/01 12:23:15;;;;;;;;;;;23.20;53.50;;;;;;5056440;28;19921;-61
2023/07/01 12:25:42;;;;;;;;;;;23.30;53.60;;;;;;5040396;28;19924;-60
2023/07/01 12:28:09;;;;;;;;;;;23.30;53.60;;;;;;5038098;28;19943;-61
2023/07/01 12:30:36;;;;;;;;;;;23.30;53.70;;;;;;5038850;28;19936;-60
2023/07/01 12:33:03;;;;;;;;;;;23.30;53.80;;;;;;5050970;28;19928;-59
2023/07/01 12:35:31;;;;;;;;;;;23.30;53.80;;;;;;5033784;28;19931;-59
2023/07/01 12:37:58;;;;;;;;;;;23.30;53.80;;;;;;5040524;28;19932;-60
2023/07/01 12:40:26;;;;;;;;;;;23.30;53.90;;;;;;5041604;28;20011;-59
2023/07/01 12:42:53;;;;;;;;;;;23.30;53.90;;;;;;5036713;28;19933;-62
2023/07/01 12:45:20;;;;;;;;;;;23.30;54.00;;;;;;5042189;28;19947;-59
2023/07/01 12:47:47;;;;;;;;;;;23.30;54.00;;;;;;5033830;28;19956;-60
2023/07/01 12:50:13;;;;;;;;;;;23.30;54.00;;;;;;5064890;28;19924;-58
2023/07/01 12:52:43;;;;;;;;;;;23.30;54.10;;;;;;5034114;28;19924;-59
2023/07/01 12:55:10;;;;;;;;;;;23.30;54.10;;;;;;5033974;28;19932;-59
2023/07/01 12:57:37;;;;;;;;;;;23.30;54.10;;;;;;5039201;28;20134;-58
2023/07/01 13:00:05;;;;;;;;;;;23.30;54.20;;;;;;5041041;28;20300;-57
2023/07/01 13:02:33;;;;;;;;;;;23.30;54.20;;;;;;5037308;28;20011;-58
2023/07/01 13:05:00;;;;;;;;;;;23.30;54.30;;;;;;5038686;28;19987;-58
2023/07/01 13:07:27;;;;;;;;;;;23.30;54.30;;;;;;5055478;28;19968;-59
2023/07/01 13:09:58;;;;;;;;;;;23.30;54.30;;;;;;5029106;28;20027;-56
2023/07/01 13:12:25;;;;;;;;;;;23.30;54.40;;;;;;5038766;28;19924;-59
2023/07/01 13:14:52;;;;;;;;;;;23.30;54.40;;;;;;5038466;28;20006;-58
2023/07/01 13:17:20;;;;;;;;;;;23.30;54.50;;;;;;5035769;28;19932;-58
2023/07/01 13:19:47;;;;;;;;;;;23.30;54.50;;;;;;5042289;28;19920;-57
2023/07/01 13:22:14;;;;;;;;;;;23.30;54.50;;;;;;5034963;28;20328;-59
2023/07/01 13:24:43;;;;;;;;;;;23.30;54.50;;;;;;5018698;28;19974;-57
2023/07/01 13:27:13;;;;;;;;;;;23.30;54.60;;;;;;5035546;28;19978;-58
2023/07/01 13:29:42;;;;;;;;;;;23.30;54.60;;;;;;5034378;28;19920;-59
2023/07/01 13:32:08;;;;;;;;;;;23.30;54.60;;;;;;5023899;28;19951;-58
2023/07/01 13:34:38;;;;;;;;;;;23.30;54.70;;;;;;5045129;28;19920;-60
2023/07/01 13:37:05;;;;;;;;;;;23.30;54.70;;;;;;5038555;28;19970;-59
2023/07/01 13:39:37;;;;;;;;;;;23.30;54.70;;;;;;5034486;28;19999;-59
2023/07/01 13:42:04;;;;;;;;;;;23.30;54.80;;;;;;5038789;28;19920;-57
2023/07/01 13:44:33;;;;;;;;;;;23.30;54.80;;;;;;5042519;28;19924;-59
2023/07/01 13:47:00;;;;;;;;;;;23.30;54.80;;;;;;5035071;28;19925;-58
2023/07/01 13:49:27;;;;;;;;;;;23.30;54.90;;;;;;5030978;28;20023;-59
2023/07/01 13:51:53;;;;;;;;;;;23.30;54.90;;;;;;5032243;28;20543;-61
2023/07/01 13:54:22;;;;;;;;;;;23.40;54.90;;;;;;5048573;28;19966;-58
2023/07/01 13:56:48;;;;;;;;;;;23.30;54.90;;;;;;5030453;28;19925;-59
2023/07/01 13:59:15;;;;;;;;;;;23.30;54.90;;;;;;5028300;28;19924;-58
2023/07/01 14:01:46;;;;;;;;;;;23.30;54.90;;;;;;5047721;28;20005;-58
2023/07/01 14:04:13;;;;;;;;;;;23.40;55.00;;;;;;5029725;28;19928;-59
2023/07/01 14:06:40;;;;;;;;;;;23.30;54.90;;;;;;5034812;28;19963;-59
2023/07/01 14:09:07;;;;;;;;;;;23.40;55.00;;;;;;5029925;28;20355;-59
2023/07/01 14:11:34;;;;;;;;;;;23.40;55.00;;;;;;5029689;28;19951;-59
2023/07/01 14:14:01;;;;;;;;;;;23.30;55.00;;;;;;5037182;28;19920;-59
2023/07/01 14:16:28;;;;;;;;;;;23.30;55.00;;;;;;5031325;28;19921;-58
2023/07/01 14:18:57;;;;;;;;;;;23.30;55.00;;;;;;5036202;28;19957;-59